sensor_id;sensor_type;location;lat;lon;timestamp;temperature;humidity
11609;DHT22;5860;52.018;8.536;2024-01-25T00:01:53;8.20;99.90
11609;DHT22;5860;52.018;8.536;2024-01-25T00:04:21;8.30;1.00
11609;DHT22;5860;52.018;8.536;2024-01-25T00:06:48;8.20;1.00
11609;DHT22;5860;52.018;8.536;2024-01-25T00:09:16;8.20;99.90
11609;DHT22;5860;52.018;8.536;2024-01-25T00:11:43;8.30;1.00
11609;DHT22;5860;52.018;8.536;2024-01-25T00:14:10;8.20;1.00
11609;DHT22;5860;52.018;8.536;2024-01-25T00:16:41;8.20;1.00
11609;DHT22;5860;52.018;8.536;2024-01-25T00:19:11;8.20;1.00
11609;DHT22;5860;52.018;8.536;2024-01-25T00:21:42;8.20;94.20
11609;DHT22;5860;52.018;8.536;2024-01-25T00:24:13;8.10;99.90
11609;DHT22;5860;52.018;8.536;2024-01-25T00:26:42;8.10;99.90
11609;DHT22;5860;52.018;8.536;2024-01-25T00:29:10;8.10;99.90
11609;DHT22;5860;52.018;8.536;2024-01-25T00:31:36;8.20;99.90
11609;DHT22;5860;52.018;8.536;2024-01-25T00:34:03;8.20;96.90
11609;DHT22;5860;52.018;8.536;2024-01-25T00:36:31;8.20;1.00
11609;DHT22;5860;52.018;8.536;2024-01-25T00:38:58;8.20;1.00
11609;DHT22;5860;52.018;8.536;2024-01-25T00:41:25;8.10;1.00
11609;DHT22;5860;52.018;8.536;2024-01-25T00:43:54;8.10;99.90
11609;DHT22;5860;52.018;8.536;2024-01-25T00:46:21;8.10;99.90
11609;DHT22;5860;52.018;8.536;2024-01-25T00:48:48;8.10;99.90
11609;DHT22;5860;52.018;8.536;2024-01-25T00:51:22;8.10;99.90
11609;DHT22;5860;52.018;8.536;2024-01-25T00:53:50;8.10;99.90
11609;DHT22;5860;52.018;8.536;2024-01-25T00:56:17;8.10;1.00
11609;DHT22;5860;52.018;8.536;2024-01-25T00:58:45;8.00;1.00
11609;DHT22;5860;52.018;8.536;2024-01-25T01:01:12;8.00;99.90
11609;DHT22;5860;52.018;8.536;2024-01-25T01:03:39;8.00;99.90
11609;DHT22;5860;52.018;8.536;2024-01-25T01:06:07;8.00;1.00
11609;DHT22;5860;52.018;8.536;2024-01-25T01:08:35;8.00;99.90
11609;DHT22;5860;52.018;8.536;2024-01-25T01:11:02;8.00;99.90
11609;DHT22;5860;52.018;8.536;2024-01-25T01:13:29;8.00;1.00
11609;DHT22;5860;52.018;8.536;2024-01-25T01:15:56;7.90;44.30
11609;DHT22;5860;52.018;8.536;2024-01-25T01:18:24;7.90;1.00
11609;DHT22;5860;52.018;8.536;2024-01-25T01:20:51;7.90;1.00
11609;DHT22;5860;52.018;8.536;2024-01-25T01:23:18;7.70;99.90
11609;DHT22;5860;52.018;8.536;2024-01-25T01:25:45;7.70;1.00
11609;DHT22;5860;52.018;8.536;2024-01-25T01:28:12;7.70;1.00
11609;DHT22;5860;52.018;8.536;2024-01-25T01:30:42;7.70;1.00
11609;DHT22;5860;52.018;8.536;2024-01-25T01:33:09;7.70;1.00
11609;DHT22;5860;52.018;8.536;2024-01-25T01:35:39;7.70;28.20
11609;DHT22;5860;52.018;8.536;2024-01-25T01:38:06;7.60;99.90
11609;DHT22;5860;52.018;8.536;2024-01-25T01:40:34;7.60;99.90
11609;DHT22;5860;52.018;8.536;2024-01-25T01:43:01;7.60;99.90
11609;DHT22;5860;52.018;8.536;2024-01-25T01:45:30;7.60;99.90
11609;DHT22;5860;52.018;8.536;2024-01-25T01:47:58;7.60;99.90
11609;DHT22;5860;52.018;8.536;2024-01-25T01:50:27;7.60;99.90
11609;DHT22;5860;52.018;8.536;2024-01-25T01:52:55;7.50;99.90
11609;DHT22;5860;52.018;8.536;2024-01-25T01:55:22;7.40;1.00
11609;DHT22;5860;52.018;8.536;2024-01-25T01:57:50;7.40;1.00
11609;DHT22;5860;52.018;8.536;2024-01-25T02:00:18;7.40;1.00
11609;DHT22;5860;52.018;8.536;2024-01-25T02:02:46;7.30;1.00
11609;DHT22;5860;52.018;8.536;2024-01-25T02:05:13;7.30;1.00
11609;DHT22;5860;52.018;8.536;2024-01-25T02:07:40;7.30;1.00
11609;DHT22;5860;52.018;8.536;2024-01-25T02:10:09;7.30;1.00
11609;DHT22;5860;52.018;8.536;2024-01-25T02:12:36;7.30;1.00
11609;DHT22;5860;52.018;8.536;2024-01-25T02:15:04;7.30;1.00
11609;DHT22;5860;52.018;8.536;2024-01-25T02:17:31;7.30;1.00
11609;DHT22;5860;52.018;8.536;2024-01-25T02:19:58;7.30;1.00
11609;DHT22;5860;52.018;8.536;2024-01-25T02:22:25;7.30;1.00
11609;DHT22;5860;52.018;8.536;2024-01-25T02:24:52;7.30;1.00
11609;DHT22;5860;52.018;8.536;2024-01-25T02:27:20;7.40;1.00
11609;DHT22;5860;52.018;8.536;2024-01-25T02:29:47;7.40;1.00
11609;DHT22;5860;52.018;8.536;2024-01-25T02:32:14;7.40;1.00
11609;DHT22;5860;52.018;8.536;2024-01-25T02:34:41;7.40;1.00
11609;DHT22;5860;52.018;8.536;2024-01-25T02:37:08;7.40;1.00
11609;DHT22;5860;52.018;8.536;2024-01-25T02:39:35;7.40;1.00
11609;DHT22;5860;52.018;8.536;2024-01-25T02:42:02;7.40;1.00
11609;DHT22;5860;52.018;8.536;2024-01-25T02:44:29;7.40;1.00
11609;DHT22;5860;52.018;8.536;2024-01-25T02:46:56;7.40;1.00
11609;DHT22;5860;52.018;8.536;2024-01-25T02:49:23;7.40;1.00
11609;DHT22;5860;52.018;8.536;2024-01-25T02:51:51;7.40;1.00
11609;DHT22;5860;52.018;8.536;2024-01-25T02:54:18;7.40;1.00
11609;DHT22;5860;52.018;8.536;2024-01-25T02:56:45;7.30;1.00
11609;DHT22;5860;52.018;8.536;2024-01-25T02:59:12;7.40;1.00
11609;DHT22;5860;52.018;8.536;2024-01-25T03:01:43;7.40;1.00
11609;DHT22;5860;52.018;8.536;2024-01-25T03:06:38;7.30;1.00
11609;DHT22;5860;52.018;8.536;2024-01-25T03:09:05;7.30;1.00
11609;DHT22;5860;52.018;8.536;2024-01-25T03:11:32;7.30;1.00
11609;DHT22;5860;52.018;8.536;2024-01-25T03:13:59;7.30;1.00
11609;DHT22;5860;52.018;8.536;2024-01-25T03:16:26;7.30;1.00
11609;DHT22;5860;52.018;8.536;2024-01-25T03:18:55;7.30;1.00
11609;DHT22;5860;52.018;8.536;2024-01-25T03:21:23;7.20;1.00
11609;DHT22;5860;52.018;8.536;2024-01-25T03:23:51;7.20;1.00
11609;DHT22;5860;52.018;8.536;2024-01-25T03:26:18;7.20;1.00
11609;DHT22;5860;52.018;8.536;2024-01-25T03:28:45;7.10;1.00
11609;DHT22;5860;52.018;8.536;2024-01-25T03:31:12;7.20;1.00
11609;DHT22;5860;52.018;8.536;2024-01-25T03:33:39;7.20;1.00
11609;DHT22;5860;52.018;8.536;2024-01-25T03:36:06;7.30;1.00
11609;DHT22;5860;52.018;8.536;2024-01-25T03:38:33;7.30;1.00
11609;DHT22;5860;52.018;8.536;2024-01-25T03:41:00;7.30;1.00
11609;DHT22;5860;52.018;8.536;2024-01-25T03:43:27;7.20;1.00
11609;DHT22;5860;52.018;8.536;2024-01-25T03:46:08;7.30;1.00
11609;DHT22;5860;52.018;8.536;2024-01-25T03:48:35;7.20;1.00
11609;DHT22;5860;52.018;8.536;2024-01-25T03:51:02;7.20;1.00
11609;DHT22;5860;52.018;8.536;2024-01-25T03:53:29;7.20;1.00
11609;DHT22;5860;52.018;8.536;2024-01-25T03:55:57;7.20;1.00
11609;DHT22;5860;52.018;8.536;2024-01-25T03:58:24;7.20;1.00
11609;DHT22;5860;52.018;8.536;2024-01-25T04:00:51;7.20;1.00
11609;DHT22;5860;52.018;8.536;2024-01-25T04:03:18;7.20;1.00
11609;DHT22;5860;52.018;8.536;2024-01-25T04:05:45;7.10;1.00
11609;DHT22;5860;52.018;8.536;2024-01-25T04:08:12;7.00;1.00
11609;DHT22;5860;52.018;8.536;2024-01-25T04:10:39;7.00;1.00
11609;DHT22;5860;52.018;8.536;2024-01-25T04:13:06;7.00;1.00
11609;DHT22;5860;52.018;8.536;2024-01-25T04:15:34;7.00;1.00
11609;DHT22;5860;52.018;8.536;2024-01-25T04:18:01;6.90;16.60
11609;DHT22;5860;52.018;8.536;2024-01-25T04:20:29;6.90;38.60
11609;DHT22;5860;52.018;8.536;2024-01-25T04:22:56;6.80;63.20
11609;DHT22;5860;52.018;8.536;2024-01-25T04:25:23;6.90;69.60
11609;DHT22;5860;52.018;8.536;2024-01-25T04:27:50;6.90;81.30
11609;DHT22;5860;52.018;8.536;2024-01-25T04:30:18;6.90;78.60
11609;DHT22;5860;52.018;8.536;2024-01-25T04:32:45;6.90;62.40
11609;DHT22;5860;52.018;8.536;2024-01-25T04:35:12;6.90;48.50
11609;DHT22;5860;52.018;8.536;2024-01-25T04:37:39;6.90;71.50
11609;DHT22;5860;52.018;8.536;2024-01-25T04:40:07;6.80;94.20
11609;DHT22;5860;52.018;8.536;2024-01-25T04:42:34;6.80;99.90
11609;DHT22;5860;52.018;8.536;2024-01-25T04:45:04;6.70;91.70
11609;DHT22;5860;52.018;8.536;2024-01-25T04:47:32;6.70;99.90
11609;DHT22;5860;52.018;8.536;2024-01-25T04:49:59;6.60;99.90
11609;DHT22;5860;52.018;8.536;2024-01-25T04:52:26;6.70;99.90
11609;DHT22;5860;52.018;8.536;2024-01-25T04:54:53;6.60;99.90
11609;DHT22;5860;52.018;8.536;2024-01-25T04:57:23;6.60;99.90
11609;DHT22;5860;52.018;8.536;2024-01-25T04:59:50;6.60;99.90
11609;DHT22;5860;52.018;8.536;2024-01-25T05:02:17;6.60;99.90
11609;DHT22;5860;52.018;8.536;2024-01-25T05:04:47;6.60;99.90
11609;DHT22;5860;52.018;8.536;2024-01-25T05:07:14;6.60;99.90
11609;DHT22;5860;52.018;8.536;2024-01-25T05:09:41;6.60;99.90
11609;DHT22;5860;52.018;8.536;2024-01-25T05:12:08;6.60;99.90
11609;DHT22;5860;52.018;8.536;2024-01-25T05:14:35;6.50;99.90
11609;DHT22;5860;52.018;8.536;2024-01-25T05:17:01;6.60;99.90
11609;DHT22;5860;52.018;8.536;2024-01-25T05:19:29;6.60;99.90
11609;DHT22;5860;52.018;8.536;2024-01-25T05:21:55;6.50;99.90
11609;DHT22;5860;52.018;8.536;2024-01-25T05:24:23;6.50;99.90
11609;DHT22;5860;52.018;8.536;2024-01-25T05:26:50;6.40;99.90
11609;DHT22;5860;52.018;8.536;2024-01-25T05:29:17;6.40;99.90
11609;DHT22;5860;52.018;8.536;2024-01-25T05:34:19;6.30;99.90
11609;DHT22;5860;52.018;8.536;2024-01-25T05:36:46;6.30;99.90
11609;DHT22;5860;52.018;8.536;2024-01-25T05:39:14;6.20;99.90
11609;DHT22;5860;52.018;8.536;2024-01-25T05:41:41;6.20;99.90
11609;DHT22;5860;52.018;8.536;2024-01-25T05:44:12;6.00;99.90
11609;DHT22;5860;52.018;8.536;2024-01-25T05:46:39;6.00;99.90
11609;DHT22;5860;52.018;8.536;2024-01-25T05:49:07;6.00;99.90
11609;DHT22;5860;52.018;8.536;2024-01-25T05:51:34;6.00;99.90
11609;DHT22;5860;52.018;8.536;2024-01-25T05:54:01;6.10;99.90
11609;DHT22;5860;52.018;8.536;2024-01-25T05:56:28;6.00;99.90
11609;DHT22;5860;52.018;8.536;2024-01-25T05:58:55;6.00;99.90
11609;DHT22;5860;52.018;8.536;2024-01-25T06:01:22;5.90;99.90
11609;DHT22;5860;52.018;8.536;2024-01-25T06:03:49;5.90;99.90
11609;DHT22;5860;52.018;8.536;2024-01-25T06:06:16;5.80;99.90
11609;DHT22;5860;52.018;8.536;2024-01-25T06:08:43;5.80;99.90
11609;DHT22;5860;52.018;8.536;2024-01-25T06:11:29;5.80;99.90
11609;DHT22;5860;52.018;8.536;2024-01-25T06:13:56;5.70;99.90
11609;DHT22;5860;52.018;8.536;2024-01-25T06:16:23;5.70;99.90
11609;DHT22;5860;52.018;8.536;2024-01-25T06:18:50;5.70;99.90
11609;DHT22;5860;52.018;8.536;2024-01-25T06:21:17;5.80;99.90
11609;DHT22;5860;52.018;8.536;2024-01-25T06:23:44;5.80;99.90
11609;DHT22;5860;52.018;8.536;2024-01-25T06:26:11;5.70;99.90
11609;DHT22;5860;52.018;8.536;2024-01-25T06:28:38;5.70;99.90
11609;DHT22;5860;52.018;8.536;2024-01-25T06:31:10;5.60;99.90
11609;DHT22;5860;52.018;8.536;2024-01-25T06:33:38;5.60;99.90
11609;DHT22;5860;52.018;8.536;2024-01-25T06:36:06;5.60;99.90
11609;DHT22;5860;52.018;8.536;2024-01-25T06:38:33;5.60;99.90
11609;DHT22;5860;52.018;8.536;2024-01-25T06:41:00;5.50;99.90
11609;DHT22;5860;52.018;8.536;2024-01-25T06:43:27;5.70;99.90
11609;DHT22;5860;52.018;8.536;2024-01-25T06:45:54;5.70;99.90
11609;DHT22;5860;52.018;8.536;2024-01-25T06:48:21;5.70;99.90
11609;DHT22;5860;52.018;8.536;2024-01-25T06:50:48;5.60;99.90
11609;DHT22;5860;52.018;8.536;2024-01-25T06:53:17;5.60;99.90
11609;DHT22;5860;52.018;8.536;2024-01-25T06:55:44;5.50;99.90
11609;DHT22;5860;52.018;8.536;2024-01-25T06:58:11;5.50;99.90
11609;DHT22;5860;52.018;8.536;2024-01-25T07:00:39;5.60;99.90
11609;DHT22;5860;52.018;8.536;2024-01-25T07:03:11;5.60;99.90
11609;DHT22;5860;52.018;8.536;2024-01-25T07:05:38;5.60;99.90
11609;DHT22;5860;52.018;8.536;2024-01-25T07:08:05;5.50;99.90
11609;DHT22;5860;52.018;8.536;2024-01-25T07:10:34;5.60;99.90
11609;DHT22;5860;52.018;8.536;2024-01-25T07:13:01;5.60;99.90
11609;DHT22;5860;52.018;8.536;2024-01-25T07:15:28;5.50;99.90
11609;DHT22;5860;52.018;8.536;2024-01-25T07:17:55;5.50;99.90
11609;DHT22;5860;52.018;8.536;2024-01-25T07:20:22;5.50;99.90
11609;DHT22;5860;52.018;8.536;2024-01-25T07:22:50;5.50;99.90
11609;DHT22;5860;52.018;8.536;2024-01-25T07:25:17;5.50;99.90
11609;DHT22;5860;52.018;8.536;2024-01-25T07:27:45;5.40;99.90
11609;DHT22;5860;52.018;8.536;2024-01-25T07:30:13;5.40;99.90
11609;DHT22;5860;52.018;8.536;2024-01-25T07:32:40;5.40;99.90
11609;DHT22;5860;52.018;8.536;2024-01-25T07:35:12;5.50;99.90
11609;DHT22;5860;52.018;8.536;2024-01-25T07:37:40;5.30;99.90
11609;DHT22;5860;52.018;8.536;2024-01-25T07:40:10;5.30;99.90
11609;DHT22;5860;52.018;8.536;2024-01-25T07:42:38;5.40;99.90
11609;DHT22;5860;52.018;8.536;2024-01-25T07:45:05;5.40;99.90
11609;DHT22;5860;52.018;8.536;2024-01-25T07:47:32;5.40;99.90
11609;DHT22;5860;52.018;8.536;2024-01-25T07:49:59;5.40;99.90
11609;DHT22;5860;52.018;8.536;2024-01-25T07:52:26;5.40;99.90
11609;DHT22;5860;52.018;8.536;2024-01-25T07:54:53;5.40;99.90
11609;DHT22;5860;52.018;8.536;2024-01-25T07:57:20;5.50;99.90
11609;DHT22;5860;52.018;8.536;2024-01-25T07:59:47;5.40;99.90
11609;DHT22;5860;52.018;8.536;2024-01-25T08:02:15;5.50;99.90
11609;DHT22;5860;52.018;8.536;2024-01-25T08:04:47;5.40;99.90
11609;DHT22;5860;52.018;8.536;2024-01-25T08:07:14;5.40;99.90
11609;DHT22;5860;52.018;8.536;2024-01-25T08:09:41;5.40;99.90
11609;DHT22;5860;52.018;8.536;2024-01-25T08:12:08;5.40;99.90
11609;DHT22;5860;52.018;8.536;2024-01-25T08:14:35;5.40;99.90
11609;DHT22;5860;52.018;8.536;2024-01-25T08:17:02;5.30;99.90
11609;DHT22;5860;52.018;8.536;2024-01-25T08:19:29;5.30;99.90
11609;DHT22;5860;52.018;8.536;2024-01-25T08:21:56;5.30;99.90
11609;DHT22;5860;52.018;8.536;2024-01-25T08:24:23;5.40;99.90
11609;DHT22;5860;52.018;8.536;2024-01-25T08:26:50;5.40;99.90
11609;DHT22;5860;52.018;8.536;2024-01-25T08:29:17;5.30;99.90
11609;DHT22;5860;52.018;8.536;2024-01-25T08:31:44;5.40;99.90
11609;DHT22;5860;52.018;8.536;2024-01-25T08:34:15;5.50;99.90
11609;DHT22;5860;52.018;8.536;2024-01-25T08:36:42;5.40;99.90
11609;DHT22;5860;52.018;8.536;2024-01-25T08:39:09;5.40;99.90
11609;DHT22;5860;52.018;8.536;2024-01-25T08:41:36;5.40;99.90
11609;DHT22;5860;52.018;8.536;2024-01-25T08:44:05;5.40;99.90
11609;DHT22;5860;52.018;8.536;2024-01-25T08:46:33;5.60;99.90
11609;DHT22;5860;52.018;8.536;2024-01-25T08:49:00;5.50;99.90
11609;DHT22;5860;52.018;8.536;2024-01-25T08:51:28;5.50;99.90
11609;DHT22;5860;52.018;8.536;2024-01-25T08:53:55;5.60;99.90
11609;DHT22;5860;52.018;8.536;2024-01-25T08:56:22;5.60;99.90
11609;DHT22;5860;52.018;8.536;2024-01-25T08:58:49;5.60;99.90
11609;DHT22;5860;52.018;8.536;2024-01-25T09:01:17;5.70;99.90
11609;DHT22;5860;52.018;8.536;2024-01-25T09:03:44;5.80;99.90
11609;DHT22;5860;52.018;8.536;2024-01-25T09:06:11;5.70;99.90
11609;DHT22;5860;52.018;8.536;2024-01-25T09:08:38;5.80;99.90
11609;DHT22;5860;52.018;8.536;2024-01-25T09:11:05;6.00;99.90
11609;DHT22;5860;52.018;8.536;2024-01-25T09:13:33;5.90;99.90
11609;DHT22;5860;52.018;8.536;2024-01-25T09:16:12;5.90;99.90
11609;DHT22;5860;52.018;8.536;2024-01-25T09:18:39;6.00;99.90
11609;DHT22;5860;52.018;8.536;2024-01-25T09:21:08;6.00;99.90
11609;DHT22;5860;52.018;8.536;2024-01-25T09:23:35;6.00;99.90
11609;DHT22;5860;52.018;8.536;2024-01-25T09:26:02;6.10;99.90
11609;DHT22;5860;52.018;8.536;2024-01-25T09:28:29;6.00;99.90
11609;DHT22;5860;52.018;8.536;2024-01-25T09:30:56;6.00;99.90
11609;DHT22;5860;52.018;8.536;2024-01-25T09:33:23;6.10;99.90
11609;DHT22;5860;52.018;8.536;2024-01-25T09:35:50;6.10;99.90
11609;DHT22;5860;52.018;8.536;2024-01-25T09:38:18;6.10;99.90
11609;DHT22;5860;52.018;8.536;2024-01-25T09:40:45;6.30;99.90
11609;DHT22;5860;52.018;8.536;2024-01-25T09:43:13;6.10;99.90
11609;DHT22;5860;52.018;8.536;2024-01-25T09:45:41;6.20;99.90
11609;DHT22;5860;52.018;8.536;2024-01-25T09:48:08;6.40;99.90
11609;DHT22;5860;52.018;8.536;2024-01-25T09:50:42;6.40;99.90
11609;DHT22;5860;52.018;8.536;2024-01-25T09:53:20;6.50;99.90
11609;DHT22;5860;52.018;8.536;2024-01-25T09:56:08;6.50;99.90
11609;DHT22;5860;52.018;8.536;2024-01-25T09:58:40;6.40;99.90
11609;DHT22;5860;52.018;8.536;2024-01-25T10:01:10;6.50;99.90
11609;DHT22;5860;52.018;8.536;2024-01-25T10:03:38;6.60;99.90
11609;DHT22;5860;52.018;8.536;2024-01-25T10:06:07;6.40;99.90
11609;DHT22;5860;52.018;8.536;2024-01-25T10:08:35;6.50;99.90
11609;DHT22;5860;52.018;8.536;2024-01-25T10:11:04;6.60;99.90
11609;DHT22;5860;52.018;8.536;2024-01-25T10:13:31;6.70;99.90
11609;DHT22;5860;52.018;8.536;2024-01-25T10:15:59;6.60;99.90
11609;DHT22;5860;52.018;8.536;2024-01-25T10:18:26;6.70;99.90
11609;DHT22;5860;52.018;8.536;2024-01-25T10:20:56;6.80;99.90
11609;DHT22;5860;52.018;8.536;2024-01-25T10:23:28;6.80;99.90
11609;DHT22;5860;52.018;8.536;2024-01-25T10:25:58;6.80;99.90
11609;DHT22;5860;52.018;8.536;2024-01-25T10:28:26;6.80;99.90
11609;DHT22;5860;52.018;8.536;2024-01-25T10:31:00;6.80;99.90
11609;DHT22;5860;52.018;8.536;2024-01-25T10:33:29;6.80;99.90
11609;DHT22;5860;52.018;8.536;2024-01-25T10:35:57;6.80;99.90
11609;DHT22;5860;52.018;8.536;2024-01-25T10:38:34;6.90;99.90
11609;DHT22;5860;52.018;8.536;2024-01-25T10:41:04;7.00;99.90
11609;DHT22;5860;52.018;8.536;2024-01-25T10:43:32;7.00;99.90
11609;DHT22;5860;52.018;8.536;2024-01-25T10:46:00;7.00;99.90
11609;DHT22;5860;52.018;8.536;2024-01-25T10:48:31;7.00;99.90
11609;DHT22;5860;52.018;8.536;2024-01-25T10:50:59;7.10;51.00
11609;DHT22;5860;52.018;8.536;2024-01-25T10:53:34;7.00;40.20
11609;DHT22;5860;52.018;8.536;2024-01-25T10:56:02;7.10;95.10
11609;DHT22;5860;52.018;8.536;2024-01-25T10:58:31;7.20;49.60
11609;DHT22;5860;52.018;8.536;2024-01-25T11:01:08;7.10;13.80
11609;DHT22;5860;52.018;8.536;2024-01-25T11:03:42;7.10;70.70
11609;DHT22;5860;52.018;8.536;2024-01-25T11:06:14;7.00;54.60
11609;DHT22;5860;52.018;8.536;2024-01-25T11:08:42;7.10;99.10
11609;DHT22;5860;52.018;8.536;2024-01-25T11:11:11;7.10;64.40
11609;DHT22;5860;52.018;8.536;2024-01-25T11:13:40;7.20;38.90
11609;DHT22;5860;52.018;8.536;2024-01-25T11:16:18;7.20;3.70
11609;DHT22;5860;52.018;8.536;2024-01-25T11:18:50;7.50;1.00
11609;DHT22;5860;52.018;8.536;2024-01-25T11:21:22;7.70;1.00
11609;DHT22;5860;52.018;8.536;2024-01-25T11:24:01;7.70;1.00
11609;DHT22;5860;52.018;8.536;2024-01-25T11:26:29;7.90;1.00
11609;DHT22;5860;52.018;8.536;2024-01-25T11:28:59;8.00;1.00
11609;DHT22;5860;52.018;8.536;2024-01-25T11:31:28;8.00;99.90
11609;DHT22;5860;52.018;8.536;2024-01-25T11:34:00;8.10;1.00
11609;DHT22;5860;52.018;8.536;2024-01-25T11:36:27;8.10;1.00
11609;DHT22;5860;52.018;8.536;2024-01-25T11:38:57;8.20;1.00
11609;DHT22;5860;52.018;8.536;2024-01-25T11:41:25;8.20;1.00
11609;DHT22;5860;52.018;8.536;2024-01-25T11:43:52;8.30;66.30
11609;DHT22;5860;52.018;8.536;2024-01-25T11:46:19;8.20;99.90
11609;DHT22;5860;52.018;8.536;2024-01-25T11:48:47;8.20;1.00
11609;DHT22;5860;52.018;8.536;2024-01-25T11:51:14;8.00;1.00
11609;DHT22;5860;52.018;8.536;2024-01-25T11:53:41;7.80;1.00
11609;DHT22;5860;52.018;8.536;2024-01-25T11:56:11;7.70;1.00
11609;DHT22;5860;52.018;8.536;2024-01-25T11:58:41;7.60;1.00
11609;DHT22;5860;52.018;8.536;2024-01-25T12:01:12;7.70;46.30
11609;DHT22;5860;52.018;8.536;2024-01-25T12:03:40;7.90;1.00
11609;DHT22;5860;52.018;8.536;2024-01-25T12:06:07;7.90;1.00
11609;DHT22;5860;52.018;8.536;2024-01-25T12:08:38;8.00;1.00
11609;DHT22;5860;52.018;8.536;2024-01-25T12:11:09;8.20;99.90
11609;DHT22;5860;52.018;8.536;2024-01-25T12:13:39;7.90;1.00
11609;DHT22;5860;52.018;8.536;2024-01-25T12:16:07;8.50;99.90
11609;DHT22;5860;52.018;8.536;2024-01-25T12:18:35;7.80;99.90
11609;DHT22;5860;52.018;8.536;2024-01-25T12:21:05;7.90;1.00
11609;DHT22;5860;52.018;8.536;2024-01-25T12:23:37;7.90;1.00
11609;DHT22;5860;52.018;8.536;2024-01-25T12:26:07;8.00;1.00
11609;DHT22;5860;52.018;8.536;2024-01-25T12:28:36;8.00;1.00
11609;DHT22;5860;52.018;8.536;2024-01-25T12:31:05;8.00;99.90
11609;DHT22;5860;52.018;8.536;2024-01-25T12:33:33;8.10;1.00
11609;DHT22;5860;52.018;8.536;2024-01-25T12:36:04;8.00;99.90
11609;DHT22;5860;52.018;8.536;2024-01-25T12:38:32;7.90;99.90
11609;DHT22;5860;52.018;8.536;2024-01-25T12:41:02;8.10;1.00
11609;DHT22;5860;52.018;8.536;2024-01-25T12:43:30;8.50;1.00
11609;DHT22;5860;52.018;8.536;2024-01-25T12:45:58;8.30;1.00
11609;DHT22;5860;52.018;8.536;2024-01-25T12:48:42;8.30;99.90
11609;DHT22;5860;52.018;8.536;2024-01-25T12:51:10;8.20;99.90
11609;DHT22;5860;52.018;8.536;2024-01-25T12:53:37;8.20;99.90
11609;DHT22;5860;52.018;8.536;2024-01-25T12:56:05;8.10;1.00
11609;DHT22;5860;52.018;8.536;2024-01-25T12:58:32;7.90;99.90
11609;DHT22;5860;52.018;8.536;2024-01-25T13:00:59;7.60;99.90
11609;DHT22;5860;52.018;8.536;2024-01-25T13:03:27;7.60;1.00
11609;DHT22;5860;52.018;8.536;2024-01-25T13:05:54;7.50;99.90
11609;DHT22;5860;52.018;8.536;2024-01-25T13:08:21;7.50;99.90
11609;DHT22;5860;52.018;8.536;2024-01-25T13:10:49;7.50;1.00
11609;DHT22;5860;52.018;8.536;2024-01-25T13:13:16;7.50;1.00
11609;DHT22;5860;52.018;8.536;2024-01-25T13:15:43;7.50;1.00
11609;DHT22;5860;52.018;8.536;2024-01-25T13:18:11;7.40;1.00
11609;DHT22;5860;52.018;8.536;2024-01-25T13:20:38;7.50;1.00
11609;DHT22;5860;52.018;8.536;2024-01-25T13:23:08;7.60;1.00
11609;DHT22;5860;52.018;8.536;2024-01-25T13:25:35;7.50;1.00
11609;DHT22;5860;52.018;8.536;2024-01-25T13:28:03;7.50;1.00
11609;DHT22;5860;52.018;8.536;2024-01-25T13:30:30;7.40;1.00
11609;DHT22;5860;52.018;8.536;2024-01-25T13:32:57;7.40;99.90
11609;DHT22;5860;52.018;8.536;2024-01-25T13:35:24;7.40;99.90
11609;DHT22;5860;52.018;8.536;2024-01-25T13:37:51;7.30;99.90
11609;DHT22;5860;52.018;8.536;2024-01-25T13:40:18;7.30;99.90
11609;DHT22;5860;52.018;8.536;2024-01-25T13:42:47;7.40;1.00
11609;DHT22;5860;52.018;8.536;2024-01-25T13:45:14;7.30;1.00
11609;DHT22;5860;52.018;8.536;2024-01-25T13:47:41;7.30;1.00
11609;DHT22;5860;52.018;8.536;2024-01-25T13:50:09;7.30;1.00
11609;DHT22;5860;52.018;8.536;2024-01-25T13:52:36;7.30;1.00
11609;DHT22;5860;52.018;8.536;2024-01-25T13:55:04;7.30;1.00
11609;DHT22;5860;52.018;8.536;2024-01-25T13:57:31;7.40;1.00
11609;DHT22;5860;52.018;8.536;2024-01-25T14:00:01;7.40;1.00
11609;DHT22;5860;52.018;8.536;2024-01-25T14:02:28;7.40;1.00
11609;DHT22;5860;52.018;8.536;2024-01-25T14:04:55;7.40;1.00
11609;DHT22;5860;52.018;8.536;2024-01-25T14:07:22;7.30;1.00
11609;DHT22;5860;52.018;8.536;2024-01-25T14:09:49;7.30;1.00
11609;DHT22;5860;52.018;8.536;2024-01-25T14:12:20;7.20;1.00
11609;DHT22;5860;52.018;8.536;2024-01-25T14:14:47;7.20;1.00
11609;DHT22;5860;52.018;8.536;2024-01-25T14:17:14;7.10;1.00
11609;DHT22;5860;52.018;8.536;2024-01-25T14:19:42;7.10;1.00
11609;DHT22;5860;52.018;8.536;2024-01-25T14:22:09;7.00;1.00
11609;DHT22;5860;52.018;8.536;2024-01-25T14:24:54;7.10;1.00
11609;DHT22;5860;52.018;8.536;2024-01-25T14:27:23;7.10;1.00
11609;DHT22;5860;52.018;8.536;2024-01-25T14:29:50;7.00;1.00
11609;DHT22;5860;52.018;8.536;2024-01-25T14:32:18;7.00;1.80
11609;DHT22;5860;52.018;8.536;2024-01-25T14:34:49;6.90;1.70
11609;DHT22;5860;52.018;8.536;2024-01-25T14:37:16;6.90;29.30
11609;DHT22;5860;52.018;8.536;2024-01-25T14:39:43;6.90;8.00
11609;DHT22;5860;52.018;8.536;2024-01-25T14:42:28;6.90;18.30
11609;DHT22;5860;52.018;8.536;2024-01-25T14:44:55;6.90;20.10
11609;DHT22;5860;52.018;8.536;2024-01-25T14:47:22;6.80;38.30
11609;DHT22;5860;52.018;8.536;2024-01-25T14:49:49;6.70;83.00
11609;DHT22;5860;52.018;8.536;2024-01-25T14:52:18;6.90;99.90
11609;DHT22;5860;52.018;8.536;2024-01-25T14:54:46;6.80;99.90
11609;DHT22;5860;52.018;8.536;2024-01-25T14:57:13;6.70;99.90
11609;DHT22;5860;52.018;8.536;2024-01-25T14:59:42;6.70;99.90
11609;DHT22;5860;52.018;8.536;2024-01-25T15:02:10;6.70;99.90
11609;DHT22;5860;52.018;8.536;2024-01-25T15:04:37;6.80;99.90
11609;DHT22;5860;52.018;8.536;2024-01-25T15:07:04;6.80;99.90
11609;DHT22;5860;52.018;8.536;2024-01-25T15:09:34;6.70;99.90
11609;DHT22;5860;52.018;8.536;2024-01-25T15:12:01;6.70;99.90
11609;DHT22;5860;52.018;8.536;2024-01-25T15:14:28;6.70;99.90
11609;DHT22;5860;52.018;8.536;2024-01-25T15:16:58;6.80;99.90
11609;DHT22;5860;52.018;8.536;2024-01-25T15:19:26;6.70;99.90
11609;DHT22;5860;52.018;8.536;2024-01-25T15:21:54;6.60;99.90
11609;DHT22;5860;52.018;8.536;2024-01-25T15:24:21;6.60;99.90
11609;DHT22;5860;52.018;8.536;2024-01-25T15:26:51;6.60;99.90
11609;DHT22;5860;52.018;8.536;2024-01-25T15:29:17;6.70;99.90
11609;DHT22;5860;52.018;8.536;2024-01-25T15:31:44;6.60;99.90
11609;DHT22;5860;52.018;8.536;2024-01-25T15:34:11;6.60;99.90
11609;DHT22;5860;52.018;8.536;2024-01-25T15:36:38;6.60;99.90
11609;DHT22;5860;52.018;8.536;2024-01-25T15:39:11;6.60;99.90
11609;DHT22;5860;52.018;8.536;2024-01-25T15:41:38;6.50;99.90
11609;DHT22;5860;52.018;8.536;2024-01-25T15:44:05;6.40;99.90
11609;DHT22;5860;52.018;8.536;2024-01-25T15:46:32;6.40;99.90
11609;DHT22;5860;52.018;8.536;2024-01-25T15:49:00;6.40;99.90
11609;DHT22;5860;52.018;8.536;2024-01-25T15:51:28;6.40;99.90
11609;DHT22;5860;52.018;8.536;2024-01-25T15:53:55;6.50;99.90
11609;DHT22;5860;52.018;8.536;2024-01-25T15:56:22;6.40;99.90
11609;DHT22;5860;52.018;8.536;2024-01-25T15:58:49;6.40;99.90
11609;DHT22;5860;52.018;8.536;2024-01-25T16:01:22;6.40;99.90
11609;DHT22;5860;52.018;8.536;2024-01-25T16:03:49;6.50;99.90
11609;DHT22;5860;52.018;8.536;2024-01-25T16:06:16;6.40;99.90
11609;DHT22;5860;52.018;8.536;2024-01-25T16:08:43;6.40;99.90
11609;DHT22;5860;52.018;8.536;2024-01-25T16:11:10;6.30;99.90
11609;DHT22;5860;52.018;8.536;2024-01-25T16:13:37;6.20;99.90
11609;DHT22;5860;52.018;8.536;2024-01-25T16:16:05;6.30;99.90
11609;DHT22;5860;52.018;8.536;2024-01-25T16:18:32;6.20;99.90